Time;durP1;ratioP1;P1;durP2;ratioP2;P2;SDS_P1;SDS_P2;PMS_P1;PMS_P2;Temp;Humidity;BMP_temperature;BMP_pressure;BME280_temperature;BME280_humidity;BME280_pressure;Samples;Min_cycle;Max_cycle;Signal;HPM_P1;HPM_P2
2023/12/27 00:00:34;;;;;;;16.98;7.15;;;;;;;;;;10363560;28;20037;-76
2023/12/27 00:05:34;;;;;;;14.53;6.83;;;;;;;;;;10362974;28;20427;-76
2023/12/27 00:10:34;;;;;;;18.75;8.10;;;;;;;;;;10347943;28;20620;-77
2023/12/27 00:15:35;;;;;;;17.98;7.22;;;;;;;;;;10362730;28;20091;-78
2023/12/27 00:20:35;;;;;;;15.05;6.43;;;;;;;;;;10363230;28;20026;-76
2023/12/27 00:25:35;;;;;;;19.92;7.18;;;;;;;;;;10363065;28;20052;-74
2023/12/27 00:30:35;;;;;;;21.33;7.57;;;;;;;;;;10362408;28;20032;-77
2023/12/27 00:35:35;;;;;;;18.13;7.88;;;;;;;;;;10361745;28;20044;-76
2023/12/27 00:40:36;;;;;;;18.13;7.30;;;;;;;;;;10373966;28;20045;-76
2023/12/27 00:45:36;;;;;;;20.10;8.20;;;;;;;;;;10362238;28;20432;-75
2023/12/27 00:50:37;;;;;;;17.85;7.47;;;;;;;;;;10377833;28;20473;-72
2023/12/27 00:55:37;;;;;;;18.33;8.67;;;;;;;;;;10368419;28;20033;-74
2023/12/27 01:00:37;;;;;;;20.58;9.18;;;;;;;;;;10362304;28;20030;-74
2023/12/27 01:05:37;;;;;;;16.88;8.85;;;;;;;;;;10359648;28;20037;-76
2023/12/27 01:10:37;;;;;;;18.40;8.90;;;;;;;;;;10373321;28;20029;-77
2023/12/27 01:15:38;;;;;;;23.17;8.93;;;;;;;;;;10359479;28;20022;-75
2023/12/27 01:20:38;;;;;;;18.35;9.18;;;;;;;;;;10361030;28;20030;-81
2023/12/27 01:25:38;;;;;;;26.93;8.70;;;;;;;;;;10361494;28;20022;-75
2023/12/27 01:30:39;;;;;;;16.98;8.80;;;;;;;;;;10359618;28;20330;-76
2023/12/27 01:35:40;;;;;;;20.67;9.82;;;;;;;;;;10360355;28;20577;-79
2023/12/27 01:40:46;;;;;;;16.75;8.60;;;;;;;;;;10359116;28;20418;-75
2023/12/27 01:45:47;;;;;;;23.60;10.20;;;;;;;;;;10344428;28;20465;-74
2023/12/27 01:50:48;;;;;;;17.27;9.05;;;;;;;;;;10371665;28;20022;-75
2023/12/27 01:55:48;;;;;;;24.30;9.77;;;;;;;;;;10344887;28;20036;-77
2023/12/27 02:00:48;;;;;;;16.77;9.20;;;;;;;;;;10358979;28;20451;-79
2023/12/27 02:05:49;;;;;;;20.65;9.00;;;;;;;;;;10373214;28;20352;-77
2023/12/27 02:10:50;;;;;;;16.45;8.93;;;;;;;;;;10360487;28;20026;-76
2023/12/27 02:15:51;;;;;;;15.57;7.38;;;;;;;;;;10359233;28;20412;-77
2023/12/27 02:20:52;;;;;;;16.15;8.95;;;;;;;;;;10367098;28;20026;-79
2023/12/27 02:25:53;;;;;;;13.27;7.30;;;;;;;;;;10380666;28;20018;-75
2023/12/27 02:30:54;;;;;;;11.82;6.60;;;;;;;;;;10366333;28;20083;-76
2023/12/27 02:35:54;;;;;;;17.80;7.10;;;;;;;;;;10372701;28;20455;-74
2023/12/27 02:40:55;;;;;;;18.00;5.47;;;;;;;;;;10366497;28;20037;-78
2023/12/27 02:45:56;;;;;;;12.00;6.28;;;;;;;;;;10380466;28;20034;-73
2023/12/27 02:50:58;;;;;;;19.25;5.88;;;;;;;;;;10371372;28;20038;-75
2023/12/27 02:55:58;;;;;;;16.15;7.75;;;;;;;;;;10365068;28;20037;-74
2023/12/27 03:00:58;;;;;;;14.30;6.57;;;;;;;;;;10365028;28;20036;-74
2023/12/27 03:05:58;;;;;;;17.42;6.13;;;;;;;;;;10381146;28;20164;-76
2023/12/27 03:10:58;;;;;;;11.02;5.05;;;;;;;;;;10354181;28;20026;-76
2023/12/27 03:16:03;;;;;;;11.77;4.82;;;;;;;;;;10364931;28;20108;-74
2023/12/27 03:21:03;;;;;;;12.43;4.95;;;;;;;;;;10365640;28;20030;-79
2023/12/27 03:26:04;;;;;;;11.80;4.50;;;;;;;;;;10365272;28;20409;-76
2023/12/27 03:31:04;;;;;;;9.32;4.00;;;;;;;;;;10349747;28;20281;-75
2023/12/27 03:36:04;;;;;;;11.82;5.45;;;;;;;;;;10365264;28;20081;-77
2023/12/27 03:41:05;;;;;;;14.87;4.77;;;;;;;;;;10364769;28;20029;-77
2023/12/27 03:46:05;;;;;;;11.60;5.10;;;;;;;;;;10364637;28;20531;-75
2023/12/27 03:51:05;;;;;;;12.27;3.72;;;;;;;;;;10364090;28;20256;-77
2023/12/27 03:56:08;;;;;;;10.13;5.15;;;;;;;;;;10363689;28;20512;-75
2023/12/27 04:01:09;;;;;;;11.27;4.20;;;;;;;;;;10363990;28;20536;-83
2023/12/27 04:06:09;;;;;;;11.98;4.45;;;;;;;;;;10337566;28;20022;-80
2023/12/27 04:11:11;;;;;;;9.10;4.88;;;;;;;;;;10362630;28;20049;-83
2023/12/27 04:16:11;;;;;;;11.18;4.88;;;;;;;;;;10377967;28;20524;-80
2023/12/27 04:21:11;;;;;;;10.35;4.40;;;;;;;;;;10361779;28;20455;-79
2023/12/27 04:26:11;;;;;;;13.32;4.68;;;;;;;;;;10363069;28;20428;-80
2023/12/27 04:31:11;;;;;;;9.68;4.43;;;;;;;;;;10364524;28;20025;-81
2023/12/27 04:36:12;;;;;;;16.15;4.78;;;;;;;;;;10364024;28;20119;-81
2023/12/27 04:41:12;;;;;;;14.55;4.60;;;;;;;;;;10361382;28;20404;-81
2023/12/27 04:46:12;;;;;;;9.30;4.28;;;;;;;;;;10361660;28;20616;-76
2023/12/27 04:51:12;;;;;;;12.65;5.10;;;;;;;;;;10372115;28;20057;-76
2023/12/27 04:56:15;;;;;;;9.73;4.28;;;;;;;;;;10361548;28;20028;-79
2023/12/27 05:01:16;;;;;;;15.30;4.43;;;;;;;;;;10364313;28;20025;-78
2023/12/27 05:06:16;;;;;;;10.30;4.60;;;;;;;;;;10360451;28;20053;-77
2023/12/27 05:11:21;;;;;;;11.13;4.85;;;;;;;;;;10358525;28;20018;-76
2023/12/27 05:16:21;;;;;;;11.93;4.70;;;;;;;;;;10358371;28;20025;-78
2023/12/27 05:21:22;;;;;;;10.35;3.88;;;;;;;;;;10353692;28;20246;-75
2023/12/27 05:26:22;;;;;;;12.48;4.20;;;;;;;;;;10361843;28;20021;-77
2023/12/27 05:31:22;;;;;;;8.93;4.13;;;;;;;;;;10361835;28;20028;-75
2023/12/27 05:36:22;;;;;;;11.30;5.30;;;;;;;;;;10358568;28;20042;-74
2023/12/27 05:41:25;;;;;;;8.50;4.10;;;;;;;;;;10357898;28;20049;-80
2023/12/27 05:46:27;;;;;;;14.80;4.50;;;;;;;;;;10362563;28;20507;-87
2023/12/27 05:51:28;;;;;;;9.65;4.28;;;;;;;;;;10350320;28;20497;-82
2023/12/27 05:56:28;;;;;;;10.52;4.20;;;;;;;;;;10371452;28;20033;-79
2023/12/27 06:01:28;;;;;;;10.75;4.60;;;;;;;;;;10363542;28;20088;-78
2023/12/27 06:06:30;;;;;;;10.02;4.28;;;;;;;;;;10346405;28;20010;-75
2023/12/27 06:11:30;;;;;;;13.35;5.07;;;;;;;;;;10350605;28;20022;-82
2023/12/27 06:16:30;;;;;;;11.65;4.82;;;;;;;;;;10353549;28;20018;-77
2023/12/27 06:21:31;;;;;;;12.88;5.60;;;;;;;;;;10353864;28;20385;-76
2023/12/27 06:26:31;;;;;;;13.85;4.50;;;;;;;;;;10348522;28;20017;-80
2023/12/27 06:31:34;;;;;;;9.68;4.68;;;;;;;;;;10348950;28;20460;-77
2023/12/27 06:36:34;;;;;;;9.48;5.10;;;;;;;;;;10348542;28;20531;-75
2023/12/27 06:41:35;;;;;;;11.53;4.43;;;;;;;;;;10342699;28;20034;-83
2023/12/27 06:46:35;;;;;;;11.87;5.20;;;;;;;;;;10362688;28;20408;-73
2023/12/27 06:51:35;;;;;;;11.43;4.53;;;;;;;;;;10361720;28;20511;-77
2023/12/27 06:56:38;;;;;;;10.98;5.45;;;;;;;;;;10359496;28;20037;-78
2023/12/27 07:01:38;;;;;;;14.38;6.85;;;;;;;;;;10370504;28;20030;-79
2023/12/27 07:06:39;;;;;;;14.53;5.23;;;;;;;;;;10336233;28;20019;-78
2023/12/27 07:11:39;;;;;;;18.67;6.30;;;;;;;;;;10351447;28;20033;-76
2023/12/27 07:16:39;;;;;;;22.98;10.02;;;;;;;;;;10348699;28;20018;-78
2023/12/27 07:21:39;;;;;;;24.75;10.15;;;;;;;;;;10346567;28;20163;-77
2023/12/27 07:26:40;;;;;;;26.58;11.45;;;;;;;;;;10343467;28;20431;-77
2023/12/27 07:31:40;;;;;;;24.30;10.63;;;;;;;;;;10336828;28;20022;-78
2023/12/27 07:36:40;;;;;;;23.67;13.10;;;;;;;;;;10342714;28;20057;-78
2023/12/27 07:41:40;;;;;;;27.93;11.83;;;;;;;;;;10341110;28;20105;-75
2023/12/27 07:46:43;;;;;;;24.20;10.70;;;;;;;;;;10345526;28;20261;-78
2023/12/27 07:51:44;;;;;;;21.23;10.57;;;;;;;;;;10366400;28;20033;-78
2023/12/27 07:56:45;;;;;;;22.10;9.85;;;;;;;;;;10351773;28;20026;-80
2023/12/27 08:01:45;;;;;;;24.08;11.05;;;;;;;;;;10363987;28;20515;-81
2023/12/27 08:06:46;;;;;;;13.30;8.13;;;;;;;;;;10362342;28;20022;-78
2023/12/27 08:11:47;;;;;;;19.45;8.50;;;;;;;;;;10352188;28;20029;-75
2023/12/27 08:16:51;;;;;;;15.32;9.27;;;;;;;;;;10366626;28;20083;-79
2023/12/27 08:21:51;;;;;;;17.40;6.90;;;;;;;;;;10365529;28;20095;-76
2023/12/27 08:26:52;;;;;;;7.47;4.20;;;;;;;;;;10345176;28;20567;-79
2023/12/27 08:31:52;;;;;;;9.75;4.95;;;;;;;;;;10348155;28;20080;-79
2023/12/27 08:36:52;;;;;;;306.98;281.02;;;;;;;;;;10355020;28;20109;-78
2023/12/27 08:41:52;;;;;;;17.92;4.97;;;;;;;;;;10349259;28;20408;-78
2023/12/27 08:46:52;;;;;;;11.45;4.90;;;;;;;;;;10351966;28;20033;-79
2023/12/27 08:51:53;;;;;;;71.72;51.88;;;;;;;;;;10371539;28;20030;-82
2023/12/27 08:56:53;;;;;;;10.52;5.70;;;;;;;;;;10358417;28;20010;-79
2023/12/27 09:01:54;;;;;;;9.52;4.43;;;;;;;;;;10359228;28;20060;-80
2023/12/27 09:06:55;;;;;;;12.40;4.70;;;;;;;;;;10361458;28;20105;-81
2023/12/27 09:11:55;;;;;;;14.05;5.00;;;;;;;;;;10361231;28;20519;-78
2023/12/27 09:16:56;;;;;;;10.68;4.95;;;;;;;;;;10357155;28;20590;-81
2023/12/27 09:21:56;;;;;;;14.00;4.57;;;;;;;;;;10365512;28;20022;-79
2023/12/27 09:26:58;;;;;;;12.85;4.30;;;;;;;;;;10352123;28;20471;-79
2023/12/27 09:31:58;;;;;;;8.05;3.78;;;;;;;;;;10359271;28;20036;-80
2023/12/27 09:36:58;;;;;;;8.97;3.73;;;;;;;;;;10345976;28;20516;-78
2023/12/27 09:41:59;;;;;;;8.20;3.47;;;;;;;;;;10363728;28;20034;-78
2023/12/27 09:47:00;;;;;;;9.27;3.87;;;;;;;;;;10356077;28;20239;-77
2023/12/27 09:52:00;;;;;;;8.85;4.32;;;;;;;;;;10348984;28;20022;-80
2023/12/27 09:57:02;;;;;;;11.63;3.85;;;;;;;;;;10345845;28;20539;-80
2023/12/27 10:02:04;;;;;;;12.43;4.05;;;;;;;;;;10350066;28;20072;-81
2023/12/27 10:07:04;;;;;;;9.82;2.90;;;;;;;;;;10364901;28;20026;-76
2023/12/27 10:12:07;;;;;;;7.65;3.30;;;;;;;;;;10363639;28;20101;-77
2023/12/27 10:17:07;;;;;;;9.55;2.30;;;;;;;;;;10348173;28;20527;-79
2023/12/27 10:22:10;;;;;;;5.57;2.15;;;;;;;;;;10349672;28;20087;-77
2023/12/27 10:27:12;;;;;;;8.70;2.65;;;;;;;;;;10349092;28;20014;-78
2023/12/27 10:32:14;;;;;;;8.18;2.80;;;;;;;;;;10345869;28;20010;-77
2023/12/27 10:37:16;;;;;;;8.00;2.50;;;;;;;;;;10351088;28;20268;-76
2023/12/27 10:42:16;;;;;;;11.45;2.78;;;;;;;;;;10355439;28;20084;-76
2023/12/27 10:47:20;;;;;;;9.40;2.72;;;;;;;;;;10367219;28;20048;-82
2023/12/27 10:52:21;;;;;;;8.13;2.70;;;;;;;;;;10365079;28;20054;-81
2023/12/27 10:57:22;;;;;;;255.15;233.82;;;;;;;;;;10367718;28;20116;-78
2023/12/27 11:02:24;;;;;;;47.72;44.08;;;;;;;;;;10349535;28;20029;-81
2023/12/27 11:07:25;;;;;;;465.35;431.38;;;;;;;;;;10361319;28;20018;-77
2023/12/27 11:12:27;;;;;;;673.65;622.15;;;;;;;;;;10349993;28;20018;-81
2023/12/27 11:17:29;;;;;;;153.30;143.65;;;;;;;;;;10362635;28;20054;-77
2023/12/27 11:22:33;;;;;;;108.68;101.45;;;;;;;;;;10371121;28;20088;-79
2023/12/27 11:27:34;;;;;;;10.43;2.80;;;;;;;;;;10372299;28;20037;-77
2023/12/27 11:32:36;;;;;;;8.03;5.00;;;;;;;;;;10375436;28;20044;-82
2023/12/27 11:37:38;;;;;;;12.07;3.15;;;;;;;;;;10353698;28;20700;-77
2023/12/27 11:42:39;;;;;;;7.18;2.25;;;;;;;;;;10354294;28;20025;-77
2023/12/27 11:47:41;;;;;;;8.40;2.33;;;;;;;;;;10342242;28;20022;-80
2023/12/27 11:52:44;;;;;;;5.95;2.33;;;;;;;;;;10326784;28;20072;-78
2023/12/27 11:57:45;;;;;;;39.63;36.13;;;;;;;;;;10336330;28;20179;-79
2023/12/27 12:02:47;;;;;;;144.35;134.90;;;;;;;;;;10329710;28;20033;-76
2023/12/27 12:08:07;;;;;;;423.35;392.50;;;;;;;;;;10327949;28;20400;-78
2023/12/27 12:13:08;;;;;;;399.65;372.92;;;;;;;;;;10307012;28;20042;-79
2023/12/27 12:18:08;;;;;;;641.35;594.53;;;;;;;;;;10340671;28;20119;-75
2023/12/27 12:23:09;;;;;;;632.22;587.72;;;;;;;;;;10339439;28;20053;-76
2023/12/27 12:28:10;;;;;;;680.45;632.95;;;;;;;;;;10331324;28;20026;-76
2023/12/27 12:33:10;;;;;;;646.93;602.90;;;;;;;;;;10344007;28;20033;-76
2023/12/27 12:38:10;;;;;;;596.80;556.90;;;;;;;;;;10344822;28;20304;-77
2023/12/27 12:43:12;;;;;;;516.35;483.60;;;;;;;;;;10348255;28;20064;-79
2023/12/27 12:48:13;;;;;;;466.38;437.17;;;;;;;;;;10341470;28;20017;-77
2023/12/27 12:53:17;;;;;;;507.52;475.35;;;;;;;;;;10338992;28;20080;-78
2023/12/27 12:58:17;;;;;;;374.10;349.23;;;;;;;;;;10348183;28;20058;-77
2023/12/27 13:03:19;;;;;;;109.13;102.88;;;;;;;;;;10342140;28;20136;-77
2023/12/27 13:08:19;;;;;;;634.38;591.80;;;;;;;;;;10337616;28;20076;-78
2023/12/27 13:13:20;;;;;;;604.13;564.38;;;;;;;;;;10338108;28;20050;-80
2023/12/27 13:18:20;;;;;;;585.95;547.67;;;;;;;;;;10348199;28;20030;-78
2023/12/27 13:23:20;;;;;;;516.75;484.17;;;;;;;;;;10336856;28;20025;-79
2023/12/27 13:28:25;;;;;;;640.45;597.70;;;;;;;;;;10338988;28;20147;-78
2023/12/27 13:33:25;;;;;;;11.82;4.32;;;;;;;;;;10348578;28;20097;-76
2023/12/27 13:38:26;;;;;;;12.32;6.45;;;;;;;;;;10334042;28;20042;-78
2023/12/27 13:43:26;;;;;;;43.80;41.03;;;;;;;;;;10347334;28;20026;-79
2023/12/27 13:48:26;;;;;;;513.53;481.17;;;;;;;;;;10340207;28;20228;-78
2023/12/27 13:53:26;;;;;;;512.60;480.67;;;;;;;;;;10338797;28;20109;-74
2023/12/27 13:58:28;;;;;;;688.25;640.72;;;;;;;;;;10341014;28;20041;-78
2023/12/27 14:03:30;;;;;;;701.47;653.70;;;;;;;;;;10357264;28;20336;-78
2023/12/27 14:08:31;;;;;;;665.92;620.70;;;;;;;;;;10350567;28;20026;-76
2023/12/27 14:13:31;;;;;;;692.25;645.85;;;;;;;;;;10350233;28;20090;-79
2023/12/27 14:18:31;;;;;;;592.72;554.17;;;;;;;;;;10335998;28;20025;-78
2023/12/27 14:23:32;;;;;;;905.53;839.25;;;;;;;;;;10348023;28;20014;-79
2023/12/27 14:28:32;;;;;;;18.92;14.52;;;;;;;;;;10353099;28;20091;-82
2023/12/27 14:33:32;;;;;;;250.27;235.82;;;;;;;;;;10361895;28;20025;-84
2023/12/27 14:38:32;;;;;;;136.57;128.63;;;;;;;;;;10353150;28;20397;-80
2023/12/27 14:43:33;;;;;;;702.47;655.25;;;;;;;;;;10368857;28;20026;-79
2023/12/27 14:48:33;;;;;;;780.88;726.75;;;;;;;;;;10351036;28;20727;-80
2023/12/27 14:53:33;;;;;;;861.57;798.97;;;;;;;;;;10355159;28;20034;-75
2023/12/27 14:58:35;;;;;;;858.38;794.97;;;;;;;;;;10355196;28;20327;-77
2023/12/27 15:03:35;;;;;;;820.55;759.03;;;;;;;;;;10364830;28;20136;-79
2023/12/27 15:08:35;;;;;;;809.13;748.05;;;;;;;;;;10353116;28;20030;-79
2023/12/27 15:13:35;;;;;;;602.00;563.15;;;;;;;;;;10359884;28;20397;-80
2023/12/27 15:18:36;;;;;;;854.97;787.75;;;;;;;;;;10353206;28;20022;-81
2023/12/27 15:23:36;;;;;;;614.30;572.57;;;;;;;;;;10354288;28;20425;-78
2023/12/27 15:28:36;;;;;;;273.85;259.52;;;;;;;;;;10348734;28;20037;-78
2023/12/27 15:33:36;;;;;;;675.78;631.17;;;;;;;;;;10359000;28;20022;-75
2023/12/27 15:38:37;;;;;;;812.50;754.60;;;;;;;;;;10362253;28;20159;-77
2023/12/27 15:43:39;;;;;;;236.18;223.63;;;;;;;;;;10360538;28;20112;-76
2023/12/27 15:48:40;;;;;;;495.38;464.67;;;;;;;;;;10360065;28;20475;-79
2023/12/27 15:53:40;;;;;;;597.03;559.08;;;;;;;;;;10361928;28;20037;-75
2023/12/27 15:58:40;;;;;;;735.72;684.80;;;;;;;;;;10361215;28;20029;-74
2023/12/27 16:03:40;;;;;;;729.33;678.53;;;;;;;;;;10360093;28;20032;-80
2023/12/27 16:08:42;;;;;;;784.27;728.90;;;;;;;;;;10361325;28;20441;-75
2023/12/27 16:13:42;;;;;;;779.00;723.22;;;;;;;;;;10358527;28;20165;-77
2023/12/27 16:18:43;;;;;;;812.60;754.28;;;;;;;;;;10361005;28;20026;-76
2023/12/27 16:23:44;;;;;;;621.10;581.50;;;;;;;;;;10362154;28;20032;-77
2023/12/27 16:28:44;;;;;;;772.08;717.78;;;;;;;;;;10359784;28;20033;-77
2023/12/27 16:33:45;;;;;;;569.83;534.22;;;;;;;;;;10357366;28;20129;-78
2023/12/27 16:38:52;;;;;;;373.67;352.35;;;;;;;;;;10358561;28;20045;-77
2023/12/27 16:43:57;;;;;;;606.88;567.22;;;;;;;;;;10359378;28;20029;-78
2023/12/27 16:49:02;;;;;;;431.15;405.20;;;;;;;;;;10352420;28;20068;-79
2023/12/27 16:54:02;;;;;;;343.38;323.75;;;;;;;;;;10359732;28;20038;-81
2023/12/27 16:59:03;;;;;;;117.63;110.20;;;;;;;;;;10363645;28;20034;-79
2023/12/27 17:04:06;;;;;;;399.25;376.23;;;;;;;;;;10359130;28;20254;-82
2023/12/27 17:09:08;;;;;;;15.63;7.85;;;;;;;;;;10362202;28;20029;-81
2023/12/27 17:14:14;;;;;;;164.07;155.15;;;;;;;;;;10373585;23;20058;-81
2023/12/27 17:19:25;;;;;;;10.77;8.05;;;;;;;;;;10332954;28;20023;-81
2023/12/27 17:24:28;;;;;;;186.35;176.02;;;;;;;;;;10304617;28;20026;-79
2023/12/27 17:29:28;;;;;;;172.60;163.02;;;;;;;;;;10309002;28;20061;-79
2023/12/27 17:34:29;;;;;;;17.17;8.30;;;;;;;;;;10302805;28;20105;-80
2023/12/27 17:39:29;;;;;;;18.03;8.73;;;;;;;;;;10300699;28;20551;-79
2023/12/27 17:44:29;;;;;;;16.35;8.02;;;;;;;;;;10298504;28;20101;-80
2023/12/27 17:49:30;;;;;;;15.63;9.43;;;;;;;;;;10314341;28;20129;-81
2023/12/27 17:54:30;;;;;;;22.98;9.45;;;;;;;;;;10319949;28;20026;-79
2023/12/27 17:59:30;;;;;;;17.75;9.00;;;;;;;;;;10314388;28;20390;-79
2023/12/27 18:04:31;;;;;;;21.00;12.50;;;;;;;;;;10316390;28;20018;-77
2023/12/27 18:09:32;;;;;;;289.70;272.88;;;;;;;;;;10324200;28;20025;-82
2023/12/27 18:14:33;;;;;;;168.27;157.82;;;;;;;;;;10323561;28;20046;-81
2023/12/27 18:19:38;;;;;;;305.33;287.47;;;;;;;;;;10316987;28;20037;-83
2023/12/27 18:24:39;;;;;;;104.75;97.07;;;;;;;;;;10306036;28;20041;-84
2023/12/27 18:29:39;;;;;;;259.63;243.88;;;;;;;;;;10303613;28;20037;-80
2023/12/27 18:34:40;;;;;;;98.15;91.47;;;;;;;;;;10296800;28;20127;-80
2023/12/27 18:39:43;;;;;;;244.30;230.43;;;;;;;;;;10300157;28;20037;-81
2023/12/27 18:44:44;;;;;;;220.05;207.73;;;;;;;;;;10316919;28;20827;-80
2023/12/27 18:49:45;;;;;;;202.48;191.32;;;;;;;;;;10298521;28;20077;-79
2023/12/27 18:54:45;;;;;;;265.30;249.63;;;;;;;;;;10313642;28;20023;-78
2023/12/27 18:59:46;;;;;;;162.10;151.98;;;;;;;;;;10316563;28;20030;-79
2023/12/27 19:04:46;;;;;;;165.63;155.70;;;;;;;;;;10305585;28;20114;-80
2023/12/27 19:09:50;;;;;;;159.75;149.07;;;;;;;;;;10325557;28;20036;-80
2023/12/27 19:14:51;;;;;;;159.23;149.15;;;;;;;;;;10306534;28;20141;-81
2023/12/27 19:19:52;;;;;;;242.82;228.50;;;;;;;;;;10305369;28;20026;-79
2023/12/27 19:24:52;;;;;;;108.63;101.47;;;;;;;;;;10322108;28;20018;-79
2023/12/27 19:29:53;;;;;;;27.60;19.02;;;;;;;;;;10306383;28;20026;-78
2023/12/27 19:34:53;;;;;;;241.15;226.25;;;;;;;;;;10321823;28;20405;-78
2023/12/27 19:39:54;;;;;;;421.88;393.90;;;;;;;;;;10308020;28;20040;-79
2023/12/27 19:44:54;;;;;;;364.98;339.63;;;;;;;;;;10305360;28;20030;-77
2023/12/27 19:49:54;;;;;;;342.50;320.05;;;;;;;;;;10302164;28;20030;-81
2023/12/27 19:54:58;;;;;;;27.05;12.25;;;;;;;;;;10357167;28;20059;-79
2023/12/27 19:59:58;;;;;;;607.85;562.30;;;;;;;;;;10350805;28;20052;-81
2023/12/27 20:05:04;;;;;;;82.88;75.20;;;;;;;;;;10351911;28;20044;-78
2023/12/27 20:10:06;;;;;;;332.33;309.90;;;;;;;;;;10375639;28;20030;-78
2023/12/27 20:15:07;;;;;;;277.48;258.77;;;;;;;;;;10347378;28;20583;-81
2023/12/27 20:20:07;;;;;;;264.60;248.35;;;;;;;;;;10326460;28;20026;-81
2023/12/27 20:25:10;;;;;;;244.43;228.27;;;;;;;;;;10372320;28;20021;-82
2023/12/27 20:30:11;;;;;;;141.82;130.18;;;;;;;;;;10346272;28;20037;-78
2023/12/27 20:35:11;;;;;;;477.98;443.50;;;;;;;;;;10345269;28;20102;-77
2023/12/27 20:40:12;;;;;;;606.72;558.20;;;;;;;;;;10315452;28;20030;-78
2023/12/27 20:45:15;;;;;;;451.47;419.57;;;;;;;;;;10305977;28;20026;-83
2023/12/27 20:50:17;;;;;;;29.83;17.48;;;;;;;;;;10319512;28;20269;-78
2023/12/27 20:55:18;;;;;;;33.05;14.55;;;;;;;;;;10303060;28;20034;-79
2023/12/27 21:00:19;;;;;;;23.00;10.02;;;;;;;;;;10303467;28;20061;-77
2023/12/27 21:05:19;;;;;;;20.60;10.93;;;;;;;;;;10286661;28;20022;-78
2023/12/27 21:10:19;;;;;;;30.02;11.77;;;;;;;;;;10320893;28;20595;-78
2023/12/27 21:15:25;;;;;;;23.67;11.35;;;;;;;;;;10317084;28;20093;-80
2023/12/27 21:20:25;;;;;;;22.40;12.55;;;;;;;;;;10304052;28;20061;-84
2023/12/27 21:25:28;;;;;;;22.60;10.88;;;;;;;;;;10288452;28;20113;-81
2023/12/27 21:30:28;;;;;;;59.80;52.40;;;;;;;;;;10320520;28;20405;-78
2023/12/27 21:35:28;;;;;;;25.13;12.10;;;;;;;;;;10317202;28;20034;-78
2023/12/27 21:40:28;;;;;;;22.67;10.68;;;;;;;;;;10283796;28;20030;-78
2023/12/27 21:45:31;;;;;;;30.67;15.80;;;;;;;;;;10304296;28;20022;-78
2023/12/27 21:50:38;;;;;;;32.88;11.95;;;;;;;;;;10328917;28;20408;-82
2023/12/27 21:55:38;;;;;;;22.83;13.00;;;;;;;;;;10284140;28;20479;-82
2023/12/27 22:00:39;;;;;;;31.58;14.32;;;;;;;;;;10314657;28;20025;-77
2023/12/27 22:05:39;;;;;;;344.52;320.02;;;;;;;;;;10300194;28;20027;-76
2023/12/27 22:10:45;;;;;;;482.37;447.70;;;;;;;;;;10301118;28;20575;-83
2023/12/27 22:15:46;;;;;;;519.00;481.42;;;;;;;;;;10302926;28;20270;-79
2023/12/27 22:20:46;;;;;;;509.75;472.33;;;;;;;;;;10317234;28;20030;-75
2023/12/27 22:25:46;;;;;;;422.48;392.45;;;;;;;;;;10308078;28;20018;-78
2023/12/27 22:30:47;;;;;;;335.02;312.42;;;;;;;;;;10317037;28;20022;-76
2023/12/27 22:35:48;;;;;;;380.80;354.00;;;;;;;;;;10336553;28;20469;-75
2023/12/27 22:40:49;;;;;;;388.65;361.38;;;;;;;;;;10330052;28;20563;-83
2023/12/27 22:45:50;;;;;;;285.35;267.20;;;;;;;;;;10315008;28;20113;-81
2023/12/27 22:50:51;;;;;;;352.10;328.27;;;;;;;;;;10309506;28;20088;-82
2023/12/27 22:55:52;;;;;;;281.55;261.80;;;;;;;;;;10315307;28;20069;-77
2023/12/27 23:00:52;;;;;;;456.30;421.77;;;;;;;;;;10311793;28;20542;-80
2023/12/27 23:05:52;;;;;;;427.83;393.02;;;;;;;;;;10308637;28;20081;-76
2023/12/27 23:10:52;;;;;;;363.83;336.85;;;;;;;;;;10392225;23;20072;-80
2023/12/27 23:15:53;;;;;;;408.48;375.45;;;;;;;;;;10379844;28;20053;-78
2023/12/27 23:20:53;;;;;;;394.38;363.08;;;;;;;;;;10380539;28;20299;-80
2023/12/27 23:25:53;;;;;;;423.40;391.60;;;;;;;;;;10382782;28;20100;-79
2023/12/27 23:30:54;;;;;;;382.70;354.08;;;;;;;;;;10378075;28;20125;-79
2023/12/27 23:35:54;;;;;;;405.02;373.02;;;;;;;;;;10378392;28;20021;-80
2023/12/27 23:40:54;;;;;;;377.00;348.23;;;;;;;;;;10376972;28;20319;-81
2023/12/27 23:45:54;;;;;;;397.38;366.98;;;;;;;;;;10356052;28;20388;-82
2023/12/27 23:50:55;;;;;;;200.52;187.30;;;;;;;;;;10379603;28;20021;-80
2023/12/27 23:55:55;;;;;;;313.70;290.63;;;;;;;;;;10380203;28;20026;-79
